AirNav   BOSE ProFlight Aviation Headset
 
 406 users online  

S50 Auburn Municipal Airport
Auburn, Washington, USA

GOING TO AUBURN?


FAA INFORMATION EFFECTIVE 21 JUNE 2018

Location

FAA Identifier: S50
Lat/Long: 47-19-39.7000N / 122-13-36.0000W
47-19.661667N / 122-13.600000W
47.3276944 / -122.2266667
(estimated)
Elevation: 63 ft. / 19.2 m (surveyed)
Variation: 18E (2005)
From city: 2 miles N of AUBURN, WA
Time zone: UTC -7 (UTC -8 during Standard Time)
Zip code: 98002

Airport Operations

Airport use: Open to the public
Activation date: 03/1970
Control tower: no
ARTCC: SEATTLE CENTER
FSS: SEATTLE FLIGHT SERVICE STATION
NOTAMs facility: SEA (NOTAM-D service available)
Attendance: MON-FRI 0800-1700
Pattern altitude: 1063 ft. MSL
Wind indicator: lighted
Segmented circle: yes
Lights: ACTVT HIRL RY 16/34 & REIL RYS 16 & 34 - CTAF. VASI RYS 16 & 34 OPER CONTINUOUSLY.
Beacon: white-green (lighted land airport)
Operates sunset to sunrise.

Airport Communications

CTAF/UNICOM: 122.8
SEATTLE APPROACH: 123.85 [0530-0000]
SEATTLE DEPARTURE: 123.85 [0530-0000]
WX ASOS at SEA (8 nm NW): PHONE 206-214-2592
WX ASOS at RNT (10 nm N): 126.95 (425-255-6080)
WX ASOS at BFI (13 nm N): 127.75 (206-763-6904)
WX AWOS-3 at PLU (14 nm S): 128.575 (253-848-2748)
WX ASOS at TIW (15 nm W): 124.05 (253-858-6507)

Nearby radio navigation aids

VOR radial/distance  VOR name  Freq  Var
SEAr133/7.3SEATTLE VORTAC116.8019E
TCMr028/14.8MCCHORD VORTAC109.6015E
OLMr033/34.9OLYMPIA VORTAC113.4019E
PAEr157/35.6PAINE VOR/DME110.6020E

 
NDB name  Hdg/Dist  Freq  Var  ID
PARKK150/12.728115EHPK .... .--. -.-
GRAYE039/18.721616EGRF --. .-. ..-.
LACOMAS019/23.432816ELAC .-.. .- -.-.
MASON COUNTY063/35.334819EMNC -- -. -.-.

Airport Services

Fuel available: 100LL
FUEL 24 HRS - CREDIT CARD SELF SERVICE.
Parking: hangars and tiedowns
Airframe service: MAJOR
Powerplant service: MAJOR
Bottled oxygen: LOW
Bulk oxygen: LOW

Runway Information

Runway 16/34

Dimensions: 3400 x 75 ft. / 1036 x 23 m
Surface: asphalt, in good condition
Weight bearing capacity: 
Single wheel: 12.5
Runway edge lights: high intensity
RUNWAY 16  RUNWAY 34
Latitude: 47-19.940475N47-19.381248N
Longitude: 122-13.602237W122-13.596288W
Elevation: 56.5 ft.62.9 ft.
Gradient: 0.1%0.1%
Traffic pattern: rightleft
Runway heading: 162 magnetic, 180 true342 magnetic, 360 true
Markings: basic, in good conditionbasic, in good condition
Visual slope indicator: 4-box VASI on right (4.50 degrees glide path)4-box VASI on left (4.00 degrees glide path)
Runway end identifier lights: yesyes
Touchdown point: yes, no lightsyes, no lights
Obstructions: 25 ft. bldg, lighted, 700 ft. from runway, 88 ft. right of centerline, 20:1 slope to clear
RWY 16 E-W HIGH VOLTAGE TSMN LINE, 80' AGL LCTD 1804' N OF RWY 16 THR AT 20:1.
18 ft. other, 442 ft. from runway, 13:1 slope to clear
RWY 34 CTLG OBS PARKING LOT LIGHTS.

Airport Ownership and Management from official FAA records

Ownership: Publicly-owned
Owner: CITY OF AUBURN
25 WEST MAIN STREET
AUBURN, WA 98001
Phone (253) 931-3010
Manager: JAMELLE GARCIA
2143 E ST. NE, SUITE #1
AUBURN, WA 98002
Phone 253-333-6821

Airport Operational Statistics

Aircraft based on the field: 314
Single engine airplanes: 282
Multi engine airplanes: 19
Helicopters: 11
Gliders airplanes: 2
    
Aircraft operations: avg 450/day *
60% local general aviation
36% transient general aviation
4% air taxi
<1% military
* for 12-month period ending 31 December 2016

Additional Remarks

ULTRALIGHTS PROHIBITED.
PLAN APCHS AND DEPS TO AVOID EXTREMELY NOISE SENSITIVE RESIDENTIAL AREA E OF THE ARPT.
FOR CD CTC SEA APCH AT 206-214-4794.

Instrument Procedures

NOTE: All procedures below are presented as PDF files. If you need a reader for these files, you should download the free Adobe Reader.

NOT FOR NAVIGATION. Please procure official charts for flight.
FAA instrument procedures published for use from 21 June 2018 at 0901Z to 19 July 2018 at 0900Z.

 
IAPs - Instrument Approach Procedures
RNAV (GPS)-A   download (224KB)
 
BLAKO ONE (OBSTACLE) (RNAV)   download (147KB)
NOTE: Special Take-Off Minimums/Departure Procedures apply   download (339KB)

Other nearby airports with instrument procedures:

KSEA - Seattle-Tacoma International Airport (8 nm NW)
KRNT - Renton Municipal Airport (10 nm N)
KBFI - Boeing Field/King County International Airport (13 nm N)
KPLU - Pierce County Airport - Thun Field (14 nm S)
KTIW - Tacoma Narrows Airport (15 nm W)
KTCM - McChord Field Airport (Joint Base Lewis-McChord) (15 nm SW)
 
Loc | Ops | Rwys | IFR | FBO | Links
Com | Nav | Svcs | Stats | Notes

AirNav Hotels Sweepstakes
 
Area around S50 (Auburn Municipal Airport)
 
Road maps at: MapQuest Bing Google
 
Aerial photo
WARNING: Photo may not be current or correct
Aerial photo of S50 (Auburn Municipal Airport)
Photo by Bruce Shull
Photo taken 02-Jun-2017
looking north.

Do you have a better or more recent aerial photo of Auburn Municipal Airport that you would like to share? If so, please send us your photo.

 
Sectional chart

 
Airport diagram
CAUTION: Diagram may not be current
Diagram of S50 (Auburn Municipal Airport)
 
Airport distance calculator
Flying to Auburn Municipal Airport? Find the distance to fly.

From to S50

Sunrise and sunset
Times for 23-Jun-2018
 Local
(UTC-7)
 Zulu
(UTC)
Morning civil twilight04:3311:33
Sunrise05:1412:14
Sunset21:0804:08
Evening civil twilight21:4904:49

Current date and time
Zulu (UTC)  23-Jun-2018 08:09:15
Local (UTC-7)  23-Jun-2018 01:09:15
 
METAR
KSEA 
8nm NW 
230753Z 03008KT 6SM -RA BR SCT007 OVC016 14/12 A3013 RMK AO2 RAB35 SLP209 P0000 T01440122 402060139
KRNT 
10nm N 
230753Z AUTO 33003KT 7SM -RA FEW010 OVC018 14/M01 A3013 RMK AO2 RAB0654 SLP207 P0002 T01441006 402110144
KPLU 
14nm S 
230755Z AUTO 23006KT 10SM OVC018 15/13 A3014 RMK AO2
KBFI 
14nm N 
230753Z 00000KT 4SM -RA BR SCT008 BKN014 OVC018 14/14 A3013 RMK AO2 RAE08B29 SLP203 P0002 T01440144 402170144 $
KTIW 
15nm W 
230753Z AUTO 23003KT 10SM -RA OVC012 14/11 A3014 RMK AO2 RAB52 SLP205 P0000 T01390111 402060128
KTCM 
16nm SW 
230801Z AUTO 22006KT 10SM -RA FEW005 OVC018 15/14 A3014 RMK AO2 RAB0759 SLP210 $
TAF
KSEA 
8nm NW 
230520Z 2306/2412 VRB04KT P6SM -SHRA OVC030 FM230900 33006KT P6SM OVC025 FM231800 33006KT P6SM OVC035 FM232300 33007KT P6SM SCT040
KBFI 
14nm N 
230520Z 2306/2406 VRB04KT P6SM -SHRA OVC030 FM230900 33006KT P6SM OVC025 FM231800 33006KT P6SM OVC035 FM232300 33006KT P6SM SCT040
KTCM 
16nm SW 
230502Z 2305/2411 22009KT 9999 BKN026 QNH3012INS BECMG 2306/2307 22009KT 9000 -SHRA BKN015 QNH3016INS BECMG 2308/2309 20009KT 9999 VCSH BKN010 QNH3013INS BECMG 2314/2315 20009KT 9999 NSW BKN012 QNH3017INS TEMPO 2315/2318 BKN008 BECMG 2317/2318 22009KT 9999 SCT010 BKN020 QNH3020INS BECMG 2320/2321 33009KT 9999 BKN030 QNH3020INS TX19/2305Z TN14/2313Z
NOTAMs
Click for the latest NOTAMs
NOTAMs are issued by the DoD/FAA and will open in a separate window not controlled by AirNav.

 

 
 

FBO, Fuel Providers, and Aircraft Ground Support

  
 Business Name 
 
 Contact 
 
 Services / Description 
 
Fuel Prices
 
Comments
  
Airport Management Group, LLC 253-333-6821
[web site]
[email]
Airport management, Aviation fuel, Aircraft parking (ramp or tiedown), Passenger terminal and lounge, Flight training, Aircraft rental, Aircraft charters, ...

More info about Airport Management Group, LLC
Shell
100LL
AS $5.67 
 Updated 19-Jun-2018
 
   2 read write
AS=Assisted/Self Service
Update Fuel Prices
 

Would you like to see your business listed on this page?

 If your business provides an interesting product or service to pilots, flight crews, aircraft, or users of the Auburn Municipal Airport, you should consider listing it here.  To start the listing process, click on the button below
 
Add a business
 

Other Pages about Auburn Municipal Airport

auburnmunicipalairport.com/...
 
Update a link
 
Copyright © AirNav, LLC. All rights reserved. Privacy Policy  Contact